Back to Top

Language: 

My Weather Underground Personal Weather Station Historical Data with Graphs...

Delerius Weather Station Historical Data
Daily Summary for January 15, 2018 Units:  Metric    English   Both
« Previous Day
Next Day »
Daily Weekly Monthly Yearly Custom
  High: Low: Average:
Temperature: 9.9 °C 3.3 °C 6.4 °C
Dew Point: 8.4 °C 2.1 °C 4.9 °C
Humidity: 94 % 83 % 90 %
Wind Speed: 32.2 km/h 3.2 km/h 19.6 km/h
Wind Gust: 51.5 km/h - -
Wind:- - WSW
Pressure: 1004.6 hPa 987.7 hPa -
Precipitation: 4.06 mm    
Historical Graphs
 
 
Tabular Data for January 15, 2018
Time Temperature Dew Point Pressure Wind Wind Speed Wind Gust Humidity Rainfall Rate (Hourly) solar Conditions
00:03 4.1 °C 3.1 °C 1004.6 hPa SSW 16.1 km/h 22.5 km/h 93 % 0.51 mm 0 W/m2
00:10 4.5 °C 3.4 °C 1004.6 hPa SSW 16.1 km/h 33.8 km/h 93 % 0.51 mm 0 W/m2
00:16 4.8 °C 3.8 °C 1004.3 hPa SSW 20.9 km/h 32.2 km/h 93 % 0.51 mm 0 W/m2
00:22 5 °C 3.9 °C 1004.3 hPa SSW 19.3 km/h 32.2 km/h 93 % 0.51 mm 0 W/m2
00:27 5.2 °C 4.2 °C 1003.9 hPa SSW 22.5 km/h 38.6 km/h 93 % 0.51 mm 0 W/m2
00:50 5.6 °C 4.2 °C 1002.6 hPa SSW 27.4 km/h 51.5 km/h 91 % 0.51 mm 0 W/m2
00:58 5.6 °C 4.2 °C 1002.3 hPa SSW 29 km/h 40.2 km/h 91 % 0.51 mm 0 W/m2
01:12 5.6 °C 4.2 °C 1001.6 hPa SSW 29 km/h 49.9 km/h 91 % 0.51 mm 0 W/m2
01:20 5.6 °C 4.2 °C 1001.6 hPa SW 25.7 km/h 40.2 km/h 91 % 0.25 mm 0 W/m2
01:33 5.5 °C 4.3 °C 1001.2 hPa SSW 27.4 km/h 46.7 km/h 92 % 0 mm 0 W/m2
01:38 5.5 °C 4.3 °C 1001.2 hPa SSW 25.7 km/h 37 km/h 92 % 0 mm 0 W/m2
01:43 5.4 °C 4.2 °C 1000.9 hPa SSW 24.1 km/h 41.8 km/h 92 % 0 mm 0 W/m2
01:49 5.4 °C 4.2 °C 1000.9 hPa SW 25.7 km/h 38.6 km/h 92 % 0 mm 0 W/m2
01:57 5.4 °C 4.2 °C 1000.6 hPa SSW 25.7 km/h 41.8 km/h 92 % 0 mm 0 W/m2
02:04 5.4 °C 4.2 °C 1000.2 hPa SW 22.5 km/h 37 km/h 92 % 0 mm 0 W/m2
02:11 5.4 °C 4.3 °C 999.9 hPa SW 29 km/h 38.6 km/h 93 % 0 mm 0 W/m2
02:32 5.5 °C 4.4 °C 999.2 hPa SW 27.4 km/h 40.2 km/h 93 % 0.25 mm 0 W/m2
02:38 5.6 °C 4.6 °C 999.2 hPa SSW 22.5 km/h 40.2 km/h 93 % 0.25 mm 0 W/m2
02:49 5.6 °C 4.6 °C 998.9 hPa SSW 24.1 km/h 38.6 km/h 93 % 0.25 mm 0 W/m2
02:58 5.7 °C 4.7 °C 998.5 hPa SSW 27.4 km/h 38.6 km/h 93 % 0.25 mm 0 W/m2
03:08 5.7 °C 4.7 °C 998.5 hPa SSW 20.9 km/h 35.4 km/h 93 % 0.25 mm 0 W/m2
03:16 5.8 °C 4.8 °C 998.2 hPa SSW 24.1 km/h 40.2 km/h 93 % 0.25 mm 0 W/m2
03:21 5.8 °C 4.8 °C 998.2 hPa SSW 24.1 km/h 37 km/h 93 % 0 mm 0 W/m2
03:26 5.8 °C 4.8 °C 997.9 hPa SSW 24.1 km/h 45.1 km/h 93 % 0 mm 0 W/m2
03:32 5.9 °C 4.8 °C 997.9 hPa SW 24.1 km/h 37 km/h 93 % 0 mm 0 W/m2
03:47 6 °C 4.9 °C 997.2 hPa SSW 32.2 km/h 45.1 km/h 93 % 0.25 mm 0 W/m2
03:56 6.1 °C 5.1 °C 996.8 hPa SSW 27.4 km/h 40.2 km/h 93 % 0.25 mm 0 W/m2
04:16 6.2 °C 5.2 °C 996.2 hPa SSW 22.5 km/h 38.6 km/h 93 % 0.25 mm 0 W/m2
04:23 6.2 °C 5.2 °C 996.2 hPa SSW 19.3 km/h 35.4 km/h 93 % 0.51 mm 0 W/m2
04:28 6.2 °C 5.2 °C 995.8 hPa SSW 19.3 km/h 35.4 km/h 93 % 0.51 mm 0 W/m2
04:44 6.4 °C 5.3 °C 995.5 hPa SSW 22.5 km/h 41.8 km/h 93 % 0.25 mm 0 W/m2
04:52 6.5 °C 5.4 °C 995.5 hPa SW 30.6 km/h 40.2 km/h 93 % 0.25 mm 0 W/m2
04:57 6.6 °C 5.6 °C 995.1 hPa SSW 24.1 km/h 37 km/h 93 % 0.25 mm 0 W/m2
05:07 6.6 °C 5.6 °C 994.8 hPa SW 25.7 km/h 35.4 km/h 93 % 0.25 mm 0 W/m2
05:13 6.6 °C 5.6 °C 994.8 hPa SW 20.9 km/h 32.2 km/h 93 % 0.25 mm 0 W/m2
05:23 6.7 °C 5.7 °C 994.5 hPa SSW 20.9 km/h 33.8 km/h 93 % 0 mm 0 W/m2
05:47 6.8 °C 5.9 °C 994.1 hPa SSW 19.3 km/h 25.7 km/h 94 % 0 mm 0 W/m2
05:57 7 °C 6.1 °C 993.8 hPa SSW 19.3 km/h 33.8 km/h 94 % 0 mm 0 W/m2
06:02 7 °C 6.1 °C 993.8 hPa SSW 20.9 km/h 38.6 km/h 94 % 0 mm 0 W/m2
06:14 7.1 °C 6.2 °C 993.5 hPa SSW 22.5 km/h 37 km/h 94 % 0 mm 0 W/m2
06:29 7.2 °C 6.3 °C 993.1 hPa SW 22.5 km/h 35.4 km/h 94 % 0 mm 0 W/m2
06:39 7.2 °C 6.3 °C 992.8 hPa SW 20.9 km/h 33.8 km/h 94 % 0 mm 0 W/m2
06:44 7.2 °C 6.3 °C 992.8 hPa SW 17.7 km/h 29 km/h 94 % 0 mm 0 W/m2
06:50 7.2 °C 6.3 °C 992.4 hPa SW 20.9 km/h 32.2 km/h 94 % 0 mm 0 W/m2
06:57 7.2 °C 6.3 °C 992.4 hPa SW 19.3 km/h 25.7 km/h 94 % 0 mm 0 W/m2
07:07 7.3 °C 6.2 °C 992.1 hPa SW 19.3 km/h 32.2 km/h 93 % 0 mm 0 W/m2
07:20 7.4 °C 6.3 °C 991.8 hPa SW 19.3 km/h 25.7 km/h 93 % 0 mm 0 W/m2
07:27 7.5 °C 6.4 °C 991.8 hPa SW 19.3 km/h 30.6 km/h 93 % 0 mm 0 W/m2
07:39 7.7 °C 6.8 °C 991.4 hPa SW 16.1 km/h 24.1 km/h 94 % 0 mm 0 W/m2
07:46 7.8 °C 6.9 °C 991.4 hPa SSW 9.7 km/h 20.9 km/h 94 % 0 mm 0 W/m2
07:53 7.8 °C 6.9 °C 991.1 hPa SSW 9.7 km/h 19.3 km/h 94 % 0 mm 0 W/m2
08:13 7.9 °C 7 °C 991.4 hPa SW 9.7 km/h 17.7 km/h 94 % 0 mm 5 W/m2
08:20 8.1 °C 7.2 °C 991.1 hPa SSW 3.2 km/h 12.9 km/h 94 % 0 mm 5 W/m2
08:38 8.2 °C 7.3 °C 991.1 hPa SW 9.7 km/h 17.7 km/h 94 % 0 mm 25 W/m2
08:58 8.8 °C 7.7 °C 991.1 hPa SW 14.5 km/h 20.9 km/h 93 % 0 mm 19 W/m2
09:06 8.8 °C 7.7 °C 991.1 hPa SW 12.9 km/h 22.5 km/h 93 % 0.25 mm 25 W/m2
09:12 8.8 °C 7.7 °C 990.7 hPa SW 9.7 km/h 16.1 km/h 93 % 0.25 mm 16 W/m2
09:17 8.8 °C 7.7 °C 990.7 hPa SW 14.5 km/h 20.9 km/h 93 % 0.25 mm 37 W/m2
09:28 9 °C 8.1 °C 990.7 hPa SW 14.5 km/h 20.9 km/h 94 % 0.51 mm 93 W/m2
09:35 9.2 °C 8.3 °C 990.4 hPa SW 16.1 km/h 20.9 km/h 94 % 0.51 mm 86 W/m2
09:48 9.3 °C 8.2 °C 990.1 hPa WSW 16.1 km/h 22.5 km/h 93 % 0.51 mm 46 W/m2
09:54 9.4 °C 8.2 °C 990.1 hPa WSW 14.5 km/h 19.3 km/h 92 % 0.51 mm 51 W/m2
10:07 9.7 °C 8.3 °C 989.7 hPa WSW 17.7 km/h 32.2 km/h 91 % 0.25 mm 171 W/m2
10:12 9.8 °C 8.4 °C 989.7 hPa West 11.3 km/h 22.5 km/h 91 % 0.25 mm 257 W/m2
10:26 9.9 °C 8.3 °C 989.4 hPa WSW 12.9 km/h 19.3 km/h 90 % 0 mm 70 W/m2
10:33 9.8 °C 8.1 °C 989.4 hPa West 17.7 km/h 24.1 km/h 89 % 0 mm 69 W/m2
10:38 9.8 °C 7.9 °C 989.1 hPa West 24.1 km/h 40.2 km/h 88 % 0 mm 69 W/m2
10:48 9.9 °C 8.2 °C 989.1 hPa West 16.1 km/h 29 km/h 89 % 0 mm 192 W/m2
11:08 9.8 °C 8.1 °C 988.7 hPa West 14.5 km/h 24.1 km/h 89 % 0 mm 47 W/m2
11:17 9.6 °C 8.1 °C 989.1 hPa WNW 16.1 km/h 24.1 km/h 90 % 0.25 mm 30 W/m2
11:24 9.2 °C 7.8 °C 989.1 hPa West 19.3 km/h 33.8 km/h 91 % 0.51 mm 28 W/m2
11:29 8.8 °C 7.4 °C 989.1 hPa WNW 19.3 km/h 32.2 km/h 91 % 0.51 mm 47 W/m2
11:40 8.4 °C 7 °C 988.7 hPa West 14.5 km/h 22.5 km/h 91 % 0.76 mm 72 W/m2
12:06 8.3 °C 7.1 °C 988 hPa West 11.3 km/h 20.9 km/h 92 % 1.02 mm 142 W/m2
12:12 8.4 °C 7.2 °C 988 hPa WNW 8 km/h 17.7 km/h 92 % 1.02 mm 137 W/m2
12:20 8.7 °C 7.6 °C 988 hPa WNW 12.9 km/h 20.9 km/h 93 % 0.51 mm 88 W/m2
12:27 8.7 °C 7.5 °C 988 hPa WNW 14.5 km/h 29 km/h 92 % 0.51 mm 76 W/m2
12:36 8.7 °C 7.5 °C 988 hPa WNW 19.3 km/h 37 km/h 92 % 0.25 mm 139 W/m2
12:43 8.7 °C 7.5 °C 988 hPa WNW 14.5 km/h 24.1 km/h 92 % 0.25 mm 76 W/m2
12:48 8.7 °C 7.3 °C 988 hPa WNW 16.1 km/h 20.9 km/h 91 % 0.25 mm 56 W/m2
12:54 8.6 °C 7.2 °C 988 hPa WNW 12.9 km/h 22.5 km/h 91 % 0 mm 51 W/m2
13:10 8.6 °C 7.1 °C 987.7 hPa WNW 20.9 km/h 35.4 km/h 90 % 0 mm 304 W/m2
13:15 8.6 °C 6.9 °C 987.7 hPa WNW 22.5 km/h 37 km/h 89 % 0 mm 60 W/m2
13:20 8.5 °C 6.6 °C 988 hPa WNW 24.1 km/h 40.2 km/h 88 % 0 mm 56 W/m2
13:27 8.3 °C 6.3 °C 988 hPa WNW 22.5 km/h 33.8 km/h 87 % 0 mm 83 W/m2
13:34 8.1 °C 5.9 °C 988 hPa WNW 29 km/h 45.1 km/h 86 % 0 mm 72 W/m2
13:39 8.2 °C 6 °C 988 hPa WNW 24.1 km/h 35.4 km/h 86 % 0 mm 244 W/m2
13:49 8.3 °C 6.1 °C 988 hPa WNW 24.1 km/h 45.1 km/h 86 % 0 mm 237 W/m2
14:02 7.9 °C 5.7 °C 988 hPa WNW 24.1 km/h 38.6 km/h 86 % 0 mm 39 W/m2
14:07 7.8 °C 5.6 °C 988 hPa WNW 24.1 km/h 33.8 km/h 86 % 0 mm 46 W/m2
14:13 7.7 °C 5.7 °C 988.4 hPa WNW 24.1 km/h 37 km/h 87 % 0 mm 62 W/m2
14:21 7.6 °C 5.6 °C 988 hPa WNW 22.5 km/h 37 km/h 87 % 0 mm 33 W/m2
14:51 7.6 °C 5.2 °C 988.4 hPa WNW 20.9 km/h 37 km/h 85 % 0 mm 83 W/m2
14:57 7.5 °C 5.2 °C 988.4 hPa WNW 20.9 km/h 32.2 km/h 85 % 0 mm 46 W/m2
15:25 7 °C 4.3 °C 988.4 hPa West 17.7 km/h 33.8 km/h 83 % 0 mm 16 W/m2
15:47 6.4 °C 4.1 °C 988.4 hPa WNW 22.5 km/h 38.6 km/h 85 % 0 mm 12 W/m2
16:02 6.3 °C 4.1 °C 988.4 hPa West 25.7 km/h 38.6 km/h 86 % 0 mm 9 W/m2
16:14 6.3 °C 3.9 °C 988.4 hPa West 25.7 km/h 45.1 km/h 85 % 0 mm 5 W/m2
16:37 6.2 °C 3.9 °C 988.7 hPa WNW 24.1 km/h 37 km/h 85 % 0 mm 0 W/m2
16:44 6.1 °C 3.8 °C 988.7 hPa WNW 20.9 km/h 33.8 km/h 85 % 0 mm 0 W/m2
16:56 6.1 °C 3.8 °C 989.1 hPa WNW 19.3 km/h 43.5 km/h 85 % 0 mm 0 W/m2
17:01 6.2 °C 3.9 °C 989.1 hPa West 20.9 km/h 35.4 km/h 85 % 0 mm 0 W/m2
17:24 6.1 °C 4.1 °C 989.1 hPa West 14.5 km/h 20.9 km/h 87 % 0 mm 0 W/m2
17:31 5.9 °C 3.9 °C 989.1 hPa West 17.7 km/h 25.7 km/h 87 % 0 mm 0 W/m2
17:42 5.7 °C 3.6 °C 988.7 hPa West 19.3 km/h 33.8 km/h 86 % 0 mm 0 W/m2
18:00 5.5 °C 3.3 °C 988.7 hPa West 19.3 km/h 29 km/h 86 % 0 mm 0 W/m2
18:14 5.5 °C 3.5 °C 988.7 hPa West 14.5 km/h 24.1 km/h 87 % 0 mm 0 W/m2
18:23 5.6 °C 3.6 °C 988.7 hPa West 14.5 km/h 19.3 km/h 87 % 0 mm 0 W/m2
18:43 5.3 °C 3.2 °C 988.7 hPa West 16.1 km/h 25.7 km/h 86 % 0 mm 0 W/m2
18:48 5.3 °C 3.2 °C 988.7 hPa West 14.5 km/h 24.1 km/h 86 % 0 mm 0 W/m2
18:53 5.3 °C 3.2 °C 988.7 hPa West 19.3 km/h 33.8 km/h 86 % 0 mm 0 W/m2
19:02 5.4 °C 3.2 °C 988.7 hPa West 16.1 km/h 22.5 km/h 86 % 0 mm 0 W/m2
19:10 5.4 °C 3.2 °C 988.7 hPa West 29 km/h 43.5 km/h 86 % 0 mm 0 W/m2
19:18 5.3 °C 3.3 °C 988.7 hPa West 22.5 km/h 41.8 km/h 87 % 0 mm 0 W/m2
19:23 5.2 °C 3.2 °C 988.7 hPa West 20.9 km/h 32.2 km/h 87 % 0 mm 0 W/m2
19:29 5.1 °C 3.1 °C 988.7 hPa West 20.9 km/h 33.8 km/h 87 % 0 mm 0 W/m2
19:49 4.8 °C 2.7 °C 988.7 hPa West 16.1 km/h 24.1 km/h 86 % 0 mm 0 W/m2
19:57 4.7 °C 2.6 °C 988.7 hPa West 14.5 km/h 22.5 km/h 86 % 0 mm 0 W/m2
20:04 4.6 °C 2.4 °C 988.7 hPa West 17.7 km/h 29 km/h 86 % 0 mm 0 W/m2
20:14 4.6 °C 2.6 °C 988.4 hPa West 19.3 km/h 33.8 km/h 87 % 0 mm 0 W/m2
20:25 4.6 °C 2.8 °C 988 hPa West 19.3 km/h 30.6 km/h 88 % 0 mm 0 W/m2
20:37 4.6 °C 2.8 °C 988 hPa WSW 17.7 km/h 24.1 km/h 88 % 0 mm 0 W/m2
20:46 4.7 °C 2.9 °C 988 hPa West 22.5 km/h 40.2 km/h 88 % 0 mm 0 W/m2
20:47 4.7 °C 2.9 °C 988 hPa West 22.5 km/h 40.2 km/h 88 % 0 mm 0 W/m2
20:48 4.7 °C 2.9 °C 988.4 hPa WSW 20.9 km/h 30.6 km/h 88 % 0 mm 0 W/m2
20:49 4.7 °C 2.9 °C 988.4 hPa WSW 19.3 km/h 30.6 km/h 88 % 0 mm 0 W/m2
20:50 4.7 °C 2.7 °C 988.4 hPa WSW 19.3 km/h 30.6 km/h 87 % 0 mm 0 W/m2
20:51 4.7 °C 2.7 °C 988.4 hPa West 19.3 km/h 35.4 km/h 87 % 0 mm 0 W/m2
20:52 4.7 °C 2.7 °C 988.4 hPa West 20.9 km/h 35.4 km/h 87 % 0 mm 0 W/m2
20:56 4.7 °C 2.7 °C 988.4 hPa WSW 17.7 km/h 30.6 km/h 87 % 0 mm 0 W/m2
21:02 4.5 °C 2.7 °C 988 hPa WSW 17.7 km/h 30.6 km/h 88 % 0 mm 0 W/m2
21:06 4.4 °C 2.6 °C 988 hPa WSW 17.7 km/h 25.7 km/h 88 % 0 mm 0 W/m2
21:07 4.3 °C 2.5 °C 988 hPa WSW 16.1 km/h 22.5 km/h 88 % 0 mm 0 W/m2
21:16 4.3 °C 2.7 °C 988 hPa West 16.1 km/h 32.2 km/h 89 % 0 mm 0 W/m2
21:23 4.4 °C 2.9 °C 988 hPa WSW 17.7 km/h 29 km/h 90 % 0 mm 0 W/m2
21:29 4.4 °C 2.9 °C 988 hPa WSW 12.9 km/h 20.9 km/h 90 % 0 mm 0 W/m2
21:37 4.6 °C 3.1 °C 988 hPa West 20.9 km/h 33.8 km/h 90 % 0 mm 0 W/m2
21:48 4.7 °C 3.1 °C 988.4 hPa West 22.5 km/h 33.8 km/h 89 % 0 mm 0 W/m2
21:56 4.7 °C 3.1 °C 988 hPa West 16.1 km/h 25.7 km/h 89 % 0 mm 0 W/m2
22:01 4.7 °C 3.1 °C 988 hPa WSW 14.5 km/h 22.5 km/h 89 % 0 mm 0 W/m2
22:12 4.8 °C 3.2 °C 988 hPa West 16.1 km/h 24.1 km/h 89 % 0 mm 0 W/m2
22:32 4.3 °C 2.8 °C 988 hPa West 11.3 km/h 16.1 km/h 90 % 0 mm 0 W/m2
22:38 4.2 °C 2.9 °C 988.4 hPa West 14.5 km/h 20.9 km/h 91 % 0 mm 0 W/m2
22:44 4.2 °C 2.9 °C 988.7 hPa WNW 24.1 km/h 45.1 km/h 91 % 0.51 mm 0 W/m2
22:50 3.7 °C 2.4 °C 988.7 hPa West 25.7 km/h 38.6 km/h 91 % 1.02 mm 0 W/m2
23:05 3.3 °C 2.1 °C 988 hPa WNW 14.5 km/h 22.5 km/h 92 % 1.27 mm 0 W/m2
23:29 3.3 °C 2.3 °C 987.7 hPa WSW 16.1 km/h 29 km/h 93 % 1.52 mm 0 W/m2
23:41 3.9 °C 2.7 °C 987.7 hPa West 20.9 km/h 37 km/h 92 % 1.27 mm 0 W/m2
23:54 4.2 °C 2.9 °C 988 hPa West 24.1 km/h 35.4 km/h 91 % 0.25 mm 0 W/m2
Delerius-Weather
Compliments of Weather Underground - 1.5 mb

Data updates at regular intervals.